createdAt,value
2023-03-07T00:02:16.847Z,-2.60
2023-03-07T00:07:20.047Z,-2.30
2023-03-07T00:12:25.409Z,-2.00
2023-03-07T00:17:28.668Z,-1.50
2023-03-07T00:22:32.849Z,-1.20
2023-03-07T00:27:37.455Z,-1.10
2023-03-07T00:32:40.782Z,-1.00
2023-03-07T00:37:44.044Z,-0.80
2023-03-07T00:42:48.681Z,-0.80
2023-03-07T00:47:52.824Z,-0.60
2023-03-07T00:52:56.138Z,-0.60
2023-03-07T00:58:01.479Z,-0.60
2023-03-07T01:03:05.531Z,-0.50
2023-03-07T01:08:09.338Z,-0.50
2023-03-07T01:13:14.440Z,-0.50
2023-03-07T01:18:17.764Z,-0.50
2023-03-07T01:23:21.317Z,-0.40
2023-03-07T01:28:25.937Z,-0.50
2023-03-07T01:33:29.256Z,-0.50
2023-03-07T01:38:34.182Z,-0.50
2023-03-07T01:43:41.517Z,-0.40
2023-03-07T01:48:55.671Z,-0.30
2023-03-07T01:54:00.949Z,-0.20
2023-03-07T01:59:06.540Z,-0.10
2023-03-07T02:04:15.157Z,0.00
2023-03-07T02:09:21.962Z,0.00
2023-03-07T02:14:26.632Z,0.10
2023-03-07T02:19:35.675Z,0.20
2023-03-07T02:24:45.586Z,0.10
2023-03-07T02:29:50.584Z,0.20
2023-03-07T02:34:53.886Z,0.30
2023-03-07T02:40:01.090Z,0.30
2023-03-07T02:45:10.340Z,0.30
2023-03-07T02:50:16.139Z,0.30
2023-03-07T02:55:23.360Z,0.30
2023-03-07T03:00:48.571Z,0.40
2023-03-07T03:05:54.260Z,0.40
2023-03-07T03:10:58.087Z,0.40
2023-03-07T03:16:05.390Z,0.50
2023-03-07T03:21:10.591Z,0.50
2023-03-07T03:26:14.562Z,0.40
2023-03-07T03:31:19.525Z,0.50
2023-03-07T03:36:25.943Z,0.60
2023-03-07T03:41:32.380Z,0.70
2023-03-07T03:46:37.801Z,0.80
2023-03-07T03:51:41.162Z,0.80
2023-03-07T03:56:45.079Z,0.80
2023-03-07T04:01:49.938Z,0.90
2023-03-07T04:06:54.846Z,0.90
2023-03-07T04:11:58.333Z,1.10
2023-03-07T04:17:03.141Z,1.20
2023-03-07T04:22:06.862Z,1.30
2023-03-07T04:27:10.169Z,1.40
2023-03-07T04:32:15.873Z,1.40
2023-03-07T04:37:19.479Z,1.50
2023-03-07T04:42:22.715Z,1.50
2023-03-07T04:47:27.338Z,1.50
2023-03-07T04:52:31.026Z,1.50
2023-03-07T04:57:34.556Z,1.30
2023-03-07T05:02:39.391Z,1.30
2023-03-07T05:07:43.379Z,1.30
2023-03-07T05:12:47.580Z,1.30
2023-03-07T05:17:53.097Z,1.30
2023-03-07T05:22:57.419Z,1.30
2023-03-07T05:28:01.399Z,1.40
2023-03-07T05:33:06.043Z,1.40
2023-03-07T05:38:10.319Z,1.40
2023-03-07T05:43:13.866Z,1.30
2023-03-07T05:48:18.514Z,1.30
2023-03-07T05:53:22.118Z,1.20
2023-03-07T05:58:26.299Z,1.30
2023-03-07T06:03:31.941Z,1.40
2023-03-07T06:08:35.392Z,1.40
2023-03-07T06:13:38.972Z,1.40
2023-03-07T06:18:43.647Z,1.40
2023-03-07T06:23:47.015Z,1.50
2023-03-07T06:28:55.011Z,1.60
2023-03-07T06:34:01.594Z,1.60
2023-03-07T06:39:05.461Z,1.70
2023-03-07T06:44:11.395Z,1.80
2023-03-07T06:49:16.295Z,1.80
2023-03-07T06:54:22.877Z,1.80
2023-03-07T06:59:27.370Z,2.00
2023-03-07T07:04:34.130Z,2.10
2023-03-07T07:09:39.922Z,2.10
2023-03-07T07:14:45.697Z,2.30
2023-03-07T07:19:51.451Z,2.30
2023-03-07T07:24:55.600Z,2.40
2023-03-07T07:29:59.846Z,2.40
2023-03-07T07:35:05.943Z,2.60
2023-03-07T07:40:12.126Z,2.50
2023-03-07T07:45:16.252Z,2.70
2023-03-07T07:50:22.616Z,2.80
2023-03-07T07:55:26.699Z,3.00
2023-03-07T08:00:31.328Z,2.90
2023-03-07T08:05:36.615Z,3.20
2023-03-07T08:10:43.128Z,3.40
2023-03-07T08:15:47.233Z,3.20
2023-03-07T08:20:52.266Z,3.10
2023-03-07T08:26:01.992Z,3.10
2023-03-07T08:31:10.094Z,3.10
2023-03-07T08:36:16.059Z,3.20
2023-03-07T08:41:21.876Z,3.20
2023-03-07T08:46:25.507Z,3.50
2023-03-07T08:51:30.479Z,3.70
2023-03-07T08:56:34.031Z,3.90
2023-03-07T09:01:39.144Z,4.00
2023-03-07T09:06:45.512Z,4.20
2023-03-07T09:11:49.321Z,4.40
2023-03-07T09:16:52.646Z,4.40
2023-03-07T09:21:57.295Z,4.50
2023-03-07T09:27:00.807Z,5.00
2023-03-07T09:32:05.057Z,5.50
2023-03-07T09:37:10.739Z,5.50
2023-03-07T09:42:20.594Z,5.40
2023-03-07T09:47:41.796Z,5.40
2023-03-07T09:52:47.288Z,5.40
2023-03-07T09:57:56.230Z,5.60
2023-03-07T10:03:10.405Z,5.80
2023-03-07T10:08:18.573Z,6.10
2023-03-07T10:13:36.231Z,6.50
2023-03-07T10:19:01.373Z,6.70
2023-03-07T10:24:25.250Z,6.60
2023-03-07T10:29:34.902Z,6.60
2023-03-07T10:34:40.103Z,6.60
2023-03-07T10:39:50.712Z,6.20
2023-03-07T10:44:54.276Z,6.30
2023-03-07T10:50:06.570Z,6.40
2023-03-07T10:55:36.834Z,6.50
2023-03-07T11:00:40.842Z,6.90
2023-03-07T11:05:48.109Z,7.00
2023-03-07T11:10:53.250Z,7.50
2023-03-07T11:16:14.985Z,7.70
2023-03-07T11:21:31.224Z,7.30
2023-03-07T11:26:40.543Z,7.30
2023-03-07T11:31:54.814Z,7.00
2023-03-07T11:37:12.216Z,7.10
2023-03-07T11:42:23.047Z,6.90
2023-03-07T11:47:36.780Z,6.30
2023-03-07T11:53:08.530Z,5.80
2023-03-07T11:58:33.076Z,5.80
2023-03-07T12:04:20.324Z,5.60
2023-03-07T12:09:36.811Z,5.20
2023-03-07T12:14:50.106Z,4.90
2023-03-07T12:20:05.936Z,4.90
2023-03-07T12:25:23.518Z,4.90
2023-03-07T12:30:37.411Z,4.60
2023-03-07T12:35:45.071Z,4.30
2023-03-07T12:40:54.012Z,4.20
2023-03-07T12:46:09.776Z,4.40
2023-03-07T12:51:20.104Z,4.50
2023-03-07T12:56:31.237Z,4.30
2023-03-07T13:01:39.143Z,4.30
2023-03-07T13:06:44.766Z,4.20
2023-03-07T13:12:28.081Z,4.20
2023-03-07T13:18:01.730Z,4.30
2023-03-07T13:23:26.377Z,4.20
2023-03-07T13:28:39.657Z,4.30
2023-03-07T13:33:44.653Z,4.30
2023-03-07T13:38:48.210Z,4.20
2023-03-07T13:44:02.299Z,4.20
2023-03-07T13:49:07.478Z,4.00
2023-03-07T13:54:13.630Z,4.10
2023-03-07T13:59:21.525Z,4.10
2023-03-07T14:04:39.824Z,4.00
2023-03-07T14:09:47.933Z,4.20
2023-03-07T14:15:05.459Z,4.10
2023-03-07T14:20:19.167Z,4.10
2023-03-07T14:25:25.841Z,4.10
2023-03-07T14:30:31.996Z,4.20
2023-03-07T14:35:40.109Z,4.30
2023-03-07T14:40:56.102Z,4.40
2023-03-07T14:46:08.753Z,4.40
2023-03-07T14:51:17.729Z,4.30
2023-03-07T14:56:25.012Z,4.40
2023-03-07T15:01:31.932Z,4.50
2023-03-07T15:06:44.171Z,4.30
2023-03-07T15:11:54.652Z,4.50
2023-03-07T15:17:03.281Z,4.60
2023-03-07T15:22:16.567Z,4.60
2023-03-07T15:27:24.777Z,4.40
2023-03-07T15:32:32.574Z,4.40
2023-03-07T15:37:53.432Z,4.60
2023-03-07T15:42:58.708Z,4.60
2023-03-07T15:48:10.553Z,4.40
2023-03-07T15:53:24.474Z,4.20
2023-03-07T15:58:30.315Z,4.20
2023-03-07T16:03:35.347Z,4.30
2023-03-07T16:08:40.384Z,4.20
2023-03-07T16:13:44.289Z,4.10
2023-03-07T16:18:48.926Z,4.00
2023-03-07T16:23:54.019Z,4.00
2023-03-07T16:28:59.860Z,3.90
2023-03-07T16:34:03.639Z,3.70
2023-03-07T16:39:08.674Z,3.60
2023-03-07T16:44:15.531Z,3.60
2023-03-07T16:49:20.139Z,3.50
2023-03-07T16:54:25.162Z,3.30
2023-03-07T16:59:37.242Z,3.20
2023-03-07T17:04:41.218Z,3.30
2023-03-07T17:09:46.672Z,3.10
2023-03-07T17:14:51.743Z,3.00
2023-03-07T17:19:55.196Z,3.00
2023-03-07T17:25:01.170Z,3.00
2023-03-07T17:30:05.967Z,2.90
2023-03-07T17:35:10.778Z,2.70
2023-03-07T17:40:15.832Z,2.60
2023-03-07T17:45:19.792Z,2.60
2023-03-07T17:50:24.030Z,2.50
2023-03-07T17:55:29.109Z,2.60
2023-03-07T18:00:32.658Z,2.70
2023-03-07T18:05:36.270Z,2.60
2023-03-07T18:10:41.291Z,2.50
2023-03-07T18:15:45.725Z,2.30
2023-03-07T18:20:56.822Z,2.50
2023-03-07T18:26:04.556Z,2.50
2023-03-07T18:31:10.753Z,2.30
2023-03-07T18:36:16.369Z,2.20
2023-03-07T18:41:23.052Z,2.00
2023-03-07T18:46:32.902Z,2.30
2023-03-07T18:51:36.625Z,2.30
2023-03-07T18:56:44.419Z,2.20
2023-03-07T19:01:50.806Z,2.10
2023-03-07T19:06:58.155Z,2.20
2023-03-07T19:12:03.095Z,2.20
2023-03-07T19:17:06.644Z,2.10
2023-03-07T19:22:10.941Z,2.10
2023-03-07T19:27:15.649Z,2.00
2023-03-07T19:32:19.365Z,2.10
2023-03-07T19:37:24.006Z,2.10
2023-03-07T19:42:29.436Z,2.00
2023-03-07T19:47:33.430Z,1.90
2023-03-07T19:52:37.406Z,1.80
2023-03-07T19:57:42.619Z,1.70
2023-03-07T20:02:46.731Z,1.70
2023-03-07T20:07:51.853Z,1.60
2023-03-07T20:12:56.915Z,1.70
2023-03-07T20:18:04.309Z,1.60
2023-03-07T20:23:09.007Z,1.80
2023-03-07T20:28:13.971Z,1.60
2023-03-07T20:33:17.862Z,1.60
2023-03-07T20:38:21.403Z,1.50
2023-03-07T20:43:26.291Z,1.50
2023-03-07T20:48:30.264Z,1.50
2023-03-07T20:53:34.372Z,1.60
2023-03-07T20:58:39.377Z,1.50
2023-03-07T21:03:44.125Z,1.60
2023-03-07T21:08:48.080Z,1.60
2023-03-07T21:13:52.977Z,1.60
2023-03-07T21:19:00.919Z,1.50
2023-03-07T21:24:05.962Z,1.40
2023-03-07T21:29:13.722Z,1.20
2023-03-07T21:34:17.491Z,1.30
2023-03-07T21:39:21.251Z,1.30
2023-03-07T21:44:27.094Z,1.10
2023-03-07T21:49:31.680Z,1.00
2023-03-07T21:54:36.418Z,1.20
2023-03-07T21:59:41.511Z,1.20
2023-03-07T22:04:45.890Z,1.20
2023-03-07T22:09:49.903Z,1.10
2023-03-07T22:14:54.898Z,0.80
2023-03-07T22:19:58.952Z,0.90
2023-03-07T22:25:03.379Z,0.90
2023-03-07T22:30:11.910Z,0.80
2023-03-07T22:35:15.687Z,0.80
2023-03-07T22:40:19.431Z,0.70
2023-03-07T22:45:24.500Z,0.90
2023-03-07T22:50:28.871Z,0.90
2023-03-07T22:55:32.635Z,1.00
2023-03-07T23:00:40.238Z,0.80
2023-03-07T23:05:46.871Z,0.60
2023-03-07T23:10:50.511Z,0.70
2023-03-07T23:15:55.768Z,0.60
2023-03-07T23:21:02.067Z,0.60
2023-03-07T23:26:07.172Z,0.60
2023-03-07T23:31:18.438Z,0.10
2023-03-07T23:36:23.428Z,0.10
2023-03-07T23:41:28.043Z,-0.10
2023-03-07T23:46:33.674Z,-0.10
2023-03-07T23:51:37.798Z,-0.50
2023-03-07T23:56:41.623Z,-0.40
